Stations météo

Publicité
Drumnadrochit, Grande-Bretagne (99132): Température de l'air & dewpoint: 20.05.2019 21:00:00 - 26.05.2019 21:00:00 (BST)Drumnadrochit, Grande-Bretagne (99132): Quantités de précipitations: 20.05.2019 21:00:00 - 26.05.2019 21:00:00 (BST)
Date & Time tt [°C] td [°C] rr [mm]
26.05.2019 21:00:00 - - -
26.05.2019 20:00:00 11,0 8,2 0,0
26.05.2019 19:00:00 10,7 8,1 0,2
26.05.2019 18:00:00 11,2 8,1 0,0
26.05.2019 17:00:00 12,5 8,0 0,0
26.05.2019 16:00:00 12,6 8,8 0,2
26.05.2019 15:00:00 12,8 9,6 0,4
26.05.2019 14:00:00 13,9 12,2 0,0
26.05.2019 13:00:00 12,1 11,1 0,8
26.05.2019 12:00:00 11,6 9,2 0,0
26.05.2019 11:00:00 11,4 8,9 0,0
26.05.2019 10:00:00 10,0 9,1 0,4
26.05.2019 09:00:00 8,6 8,0 1,0
26.05.2019 08:00:00 8,0 7,8 2,4
26.05.2019 07:00:00 7,6 7,1 3,4
26.05.2019 06:00:00 7,4 7,1 4,4
26.05.2019 05:00:00 7,4 7,2 3,4
26.05.2019 04:00:00 7,6 7,2 1,0
26.05.2019 03:00:00 7,7 7,0 2,2
26.05.2019 02:00:00 7,8 7,1 0,8
26.05.2019 01:00:00 8,0 7,3 0,6
26.05.2019 00:00:00 8,5 8,0 1,4
25.05.2019 23:00:00 8,8 8,4 1,4
25.05.2019 22:00:00 8,9 8,5 1,0
25.05.2019 21:00:00 9,3 8,9 1,4
25.05.2019 20:00:00 9,6 9,3 0,8
25.05.2019 19:00:00 9,7 9,3 0,2
25.05.2019 18:00:00 9,9 9,4 0,8
25.05.2019 17:00:00 10,5 9,4 0,2
25.05.2019 16:00:00 11,1 9,0 0,2
25.05.2019 15:00:00 11,7 9,0 0,6
25.05.2019 14:00:00 11,5 8,5 0,2
25.05.2019 13:00:00 11,9 8,7 0,2
25.05.2019 12:00:00 11,3 7,8 0,2
25.05.2019 11:00:00 10,6 7,0 0,0
25.05.2019 10:00:00 9,5 6,3 0,0
25.05.2019 09:00:00 8,1 5,4 0,0
25.05.2019 08:00:00 6,8 5,7 0,0
25.05.2019 07:00:00 4,9 4,9 0,0
25.05.2019 06:00:00 4,1 4,1 0,0
25.05.2019 05:00:00 2,1 2,1 0,0
25.05.2019 04:00:00 1,8 1,7 0,0
25.05.2019 03:00:00 1,8 1,5 0,0
25.05.2019 02:00:00 2,8 2,4 0,0
25.05.2019 01:00:00 2,7 1,8 0,0
25.05.2019 00:00:00 4,0 2,9 0,0
24.05.2019 23:00:00 7,0 4,2 0,0
24.05.2019 22:00:00 7,0 4,5 0,0
24.05.2019 21:00:00 10,4 5,0 0,0
24.05.2019 20:00:00 11,2 5,9 0,0
24.05.2019 19:00:00 11,1 6,1 0,2
24.05.2019 18:00:00 12,7 4,4 0,0
24.05.2019 17:00:00 13,6 4,6 0,0
24.05.2019 16:00:00 14,4 4,2 0,0
24.05.2019 15:00:00 13,2 4,4 0,0
24.05.2019 14:00:00 13,0 4,9 0,0
24.05.2019 13:00:00 14,2 5,4 0,0
24.05.2019 12:00:00 13,6 7,2 0,0
24.05.2019 11:00:00 12,4 6,3 0,0
24.05.2019 10:00:00 11,2 5,1 0,0
24.05.2019 09:00:00 10,5 4,5 0,0
24.05.2019 08:00:00 9,9 4,3 0,0
24.05.2019 07:00:00 9,2 5,3 0,0
24.05.2019 06:00:00 8,7 4,8 0,0
24.05.2019 05:00:00 8,5 4,6 0,0
24.05.2019 04:00:00 8,7 5,0 0,0
24.05.2019 03:00:00 8,8 5,0 0,0
24.05.2019 02:00:00 9,1 5,2 0,0
24.05.2019 01:00:00 9,3 5,2 0,0
24.05.2019 00:00:00 9,5 5,2 0,0
23.05.2019 23:00:00 9,5 5,3 0,0
23.05.2019 22:00:00 9,7 5,6 0,0
23.05.2019 21:00:00 10,1 5,8 0,0
23.05.2019 20:00:00 10,7 5,8 0,0
23.05.2019 19:00:00 11,5 5,7 0,0
23.05.2019 18:00:00 11,8 5,6 0,0
23.05.2019 17:00:00 11,8 5,7 0,0
23.05.2019 16:00:00 11,9 5,3 0,0
23.05.2019 15:00:00 12,5 5,8 0,0
23.05.2019 14:00:00 12,9 5,7 0,0
23.05.2019 13:00:00 13,7 5,9 0,0
23.05.2019 12:00:00 12,8 6,2 0,0
23.05.2019 11:00:00 12,5 7,2 0,0
23.05.2019 10:00:00 11,5 7,1 0,0
23.05.2019 09:00:00 10,6 6,8 0,0
23.05.2019 08:00:00 10,2 6,9 0,0
23.05.2019 07:00:00 9,8 6,7 0,0
23.05.2019 06:00:00 9,5 6,7 0,0
23.05.2019 05:00:00 9,9 6,7 0,0
23.05.2019 04:00:00 9,9 6,9 0,0
23.05.2019 03:00:00 10,1 6,8 0,0
23.05.2019 02:00:00 9,3 7,5 0,0
23.05.2019 01:00:00 9,9 7,0 0,0
23.05.2019 00:00:00 10,3 6,9 0,0
22.05.2019 23:00:00 10,0 8,1 0,0
22.05.2019 22:00:00 10,3 7,8 0,0
22.05.2019 21:00:00 10,6 7,7 0,0
22.05.2019 20:00:00 10,6 8,1 0,0
22.05.2019 19:00:00 11,4 7,5 0,0
22.05.2019 18:00:00 12,4 7,5 0,0
22.05.2019 17:00:00 13,0 7,5 0,0
22.05.2019 16:00:00 13,5 7,4 0,0
22.05.2019 15:00:00 13,0 7,5 0,0
22.05.2019 14:00:00 11,7 9,2 0,2
22.05.2019 13:00:00 12,0 7,9 0,0
22.05.2019 12:00:00 11,5 8,3 0,2
22.05.2019 11:00:00 11,2 7,6 0,0
22.05.2019 10:00:00 9,9 8,4 0,0
22.05.2019 09:00:00 8,9 8,1 0,0
22.05.2019 08:00:00 8,1 7,8 0,2
22.05.2019 07:00:00 7,2 7,0 0,2
22.05.2019 06:00:00 6,9 6,8 0,4
22.05.2019 05:00:00 6,2 5,9 0,2
22.05.2019 04:00:00 5,8 5,6 0,0
22.05.2019 03:00:00 5,4 5,2 0,0
22.05.2019 02:00:00 4,6 4,6 0,0
22.05.2019 01:00:00 3,2 2,9 0,0
22.05.2019 00:00:00 4,1 3,2 0,0
21.05.2019 23:00:00 4,5 3,2 0,0
21.05.2019 22:00:00 6,8 4,4 0,0
21.05.2019 21:00:00 10,0 4,4 0,0
21.05.2019 20:00:00 12,0 4,1 0,0
21.05.2019 19:00:00 12,4 4,8 0,0
21.05.2019 18:00:00 12,0 4,2 0,0
21.05.2019 17:00:00 13,3 5,0 0,0
21.05.2019 16:00:00 14,1 4,4 0,0
21.05.2019 15:00:00 15,1 5,8 0,0
21.05.2019 14:00:00 14,0 5,1 0,0
21.05.2019 13:00:00 13,4 7,4 0,4
21.05.2019 12:00:00 11,6 7,7 0,0
21.05.2019 11:00:00 11,6 6,0 0,0
21.05.2019 10:00:00 10,4 7,9 0,0
21.05.2019 09:00:00 9,7 8,5 0,0
21.05.2019 08:00:00 8,2 8,0 0,0
21.05.2019 07:00:00 7,7 7,7 0,0
21.05.2019 06:00:00 7,0 6,9 0,0
21.05.2019 05:00:00 7,6 7,5 0,0
21.05.2019 04:00:00 8,1 8,0 0,2
21.05.2019 03:00:00 7,9 7,7 0,0
21.05.2019 02:00:00 8,5 8,4 0,6
21.05.2019 01:00:00 8,9 8,7 0,6
21.05.2019 00:00:00 9,2 9,0 1,0
20.05.2019 23:00:00 9,5 9,3 0,2
20.05.2019 22:00:00 10,0 9,6 0,2
20.05.2019 21:00:00 10,6 10,1 0,8

tt = Température de l'air
td = dewpoint
rr = Quantités de précipitations

stations d'obs. à proximité